createdAt,value
2022-11-24T00:01:29.787Z,6.90
2022-11-24T00:04:02.705Z,9.30
2022-11-24T00:06:32.962Z,11.80
2022-11-24T00:09:02.329Z,7.47
2022-11-24T00:11:32.647Z,6.85
2022-11-24T00:14:01.212Z,13.30
2022-11-24T00:16:36.309Z,5.32
2022-11-24T00:19:09.186Z,6.07
2022-11-24T00:21:38.641Z,9.38
2022-11-24T00:24:07.263Z,9.73
2022-11-24T00:26:39.900Z,8.38
2022-11-24T00:29:11.149Z,8.20
2022-11-24T00:31:41.257Z,6.55
2022-11-24T00:34:14.703Z,10.73
2022-11-24T00:36:43.205Z,5.32
2022-11-24T00:39:14.429Z,10.88
2022-11-24T00:41:43.257Z,10.35
2022-11-24T00:44:11.750Z,9.55
2022-11-24T00:46:40.676Z,9.38
2022-11-24T00:49:09.401Z,7.15
2022-11-24T00:51:37.177Z,10.00
2022-11-24T00:54:06.404Z,8.63
2022-11-24T00:56:34.906Z,10.77
2022-11-24T00:59:03.659Z,10.70
2022-11-24T01:01:32.136Z,11.05
2022-11-24T01:04:02.151Z,14.60
2022-11-24T01:06:31.605Z,9.23
2022-11-24T01:09:00.751Z,10.57
2022-11-24T01:11:53.588Z,10.50
2022-11-24T01:14:23.780Z,9.02
2022-11-24T01:16:52.524Z,10.65
2022-11-24T01:19:21.208Z,9.68
2022-11-24T01:21:49.187Z,10.10
2022-11-24T01:24:18.076Z,13.13
2022-11-24T01:26:48.500Z,9.63
2022-11-24T01:29:18.061Z,8.25
2022-11-24T01:31:46.134Z,8.70
2022-11-24T01:34:15.557Z,10.60
2022-11-24T01:36:44.935Z,7.32
2022-11-24T01:39:13.890Z,7.38
2022-11-24T01:41:41.704Z,9.65
2022-11-24T01:44:27.673Z,6.25
2022-11-24T01:47:17.755Z,6.78
2022-11-24T01:49:49.365Z,7.22
2022-11-24T01:52:41.668Z,10.30
2022-11-24T01:55:16.223Z,5.47
2022-11-24T01:57:55.815Z,15.60
2022-11-24T02:00:24.212Z,10.60
2022-11-24T02:02:53.648Z,9.00
2022-11-24T02:05:28.394Z,7.70
2022-11-24T02:07:59.506Z,9.32
2022-11-24T02:10:28.238Z,5.75
2022-11-24T02:12:58.138Z,10.35
2022-11-24T02:15:26.936Z,7.53
2022-11-24T02:17:55.197Z,6.40
2022-11-24T02:20:23.287Z,7.13
2022-11-24T02:23:11.093Z,7.65
2022-11-24T02:25:42.750Z,5.15
2022-11-24T02:28:15.697Z,7.68
2022-11-24T02:30:45.118Z,13.00
2022-11-24T02:33:14.138Z,7.70
2022-11-24T02:35:42.774Z,7.05
2022-11-24T02:38:14.417Z,7.25
2022-11-24T02:40:47.177Z,9.98
2022-11-24T02:43:20.758Z,5.68
2022-11-24T02:45:48.986Z,6.95
2022-11-24T02:48:17.139Z,5.55
2022-11-24T02:50:45.155Z,9.85
2022-11-24T02:53:13.419Z,6.30
2022-11-24T02:55:42.451Z,7.80
2022-11-24T02:58:10.566Z,11.27
2022-11-24T03:00:39.129Z,6.82
2022-11-24T03:03:07.478Z,9.27
2022-11-24T03:05:39.182Z,6.20
2022-11-24T03:08:08.589Z,11.18
2022-11-24T03:10:37.205Z,7.97
2022-11-24T03:13:05.921Z,10.77
2022-11-24T03:15:34.784Z,7.40
2022-11-24T03:18:03.065Z,7.50
2022-11-24T03:20:31.103Z,9.60
2022-11-24T03:22:59.330Z,10.75
2022-11-24T03:25:28.245Z,9.38
2022-11-24T03:27:58.337Z,7.22
2022-11-24T03:30:26.492Z,9.98
2022-11-24T03:32:55.024Z,11.18
2022-11-24T03:35:24.329Z,15.55
2022-11-24T03:37:52.113Z,8.55
2022-11-24T03:40:20.639Z,12.20
2022-11-24T03:42:49.387Z,13.45
2022-11-24T03:45:44.384Z,5.38
2022-11-24T03:48:06.202Z,14.93
2022-11-24T03:50:34.298Z,11.80
2022-11-24T03:53:02.668Z,9.32
2022-11-24T03:55:31.310Z,11.20
2022-11-24T03:57:59.206Z,16.75
2022-11-24T04:00:27.843Z,8.57
2022-11-24T04:02:55.673Z,9.93
2022-11-24T04:05:25.562Z,9.93
2022-11-24T04:07:57.827Z,12.65
2022-11-24T04:10:26.505Z,10.10
2022-11-24T04:12:54.419Z,10.18
2022-11-24T04:15:22.714Z,13.25
2022-11-24T04:17:51.278Z,13.18
2022-11-24T04:20:20.084Z,17.88
2022-11-24T04:22:50.690Z,11.02
2022-11-24T04:25:18.653Z,9.38
2022-11-24T04:27:52.700Z,9.35
2022-11-24T04:30:21.505Z,14.00
2022-11-24T04:32:51.040Z,13.43
2022-11-24T04:35:19.757Z,10.57
2022-11-24T04:37:48.210Z,11.27
2022-11-24T04:40:16.331Z,12.88
2022-11-24T04:42:44.441Z,13.52
2022-11-24T04:45:12.322Z,10.80
2022-11-24T04:47:40.451Z,10.68
2022-11-24T04:50:09.955Z,11.55
2022-11-24T04:52:38.098Z,18.20
2022-11-24T04:55:06.259Z,10.30
2022-11-24T04:57:35.008Z,16.88
2022-11-24T05:00:04.128Z,15.55
2022-11-24T05:02:32.596Z,14.82
2022-11-24T05:05:00.427Z,13.45
2022-11-24T05:07:28.952Z,13.23
2022-11-24T05:10:15.886Z,14.00
2022-11-24T05:12:49.933Z,9.75
2022-11-24T05:15:19.407Z,15.60
2022-11-24T05:17:47.739Z,12.98
2022-11-24T05:20:16.066Z,8.95
2022-11-24T05:22:44.999Z,15.40
2022-11-24T05:25:15.528Z,13.25
2022-11-24T05:27:43.986Z,15.52
2022-11-24T05:30:12.589Z,13.52
2022-11-24T05:32:40.798Z,9.27
2022-11-24T05:35:09.872Z,12.13
2022-11-24T05:37:38.800Z,11.02
2022-11-24T05:40:07.610Z,13.57
2022-11-24T05:42:46.514Z,13.52
2022-11-24T05:45:19.116Z,15.57
2022-11-24T05:47:48.764Z,17.77
2022-11-24T05:50:19.402Z,16.15
2022-11-24T05:52:48.394Z,12.55
2022-11-24T05:55:19.564Z,15.63
2022-11-24T05:57:48.277Z,12.02
2022-11-24T06:00:18.268Z,15.80
2022-11-24T06:02:46.456Z,13.55
2022-11-24T06:05:14.538Z,18.95
2022-11-24T06:07:42.719Z,14.50
2022-11-24T06:10:11.132Z,12.32
2022-11-24T06:12:39.644Z,19.23
2022-11-24T06:15:08.126Z,11.80
2022-11-24T06:17:37.042Z,11.98
2022-11-24T06:20:07.043Z,14.65
2022-11-24T06:22:35.332Z,15.10
2022-11-24T06:25:04.168Z,15.63
2022-11-24T06:27:32.696Z,17.20
2022-11-24T06:30:01.473Z,13.18
2022-11-24T06:32:29.770Z,18.60
2022-11-24T06:34:58.028Z,13.15
2022-11-24T06:37:26.671Z,21.73
2022-11-24T06:39:55.028Z,17.15
2022-11-24T06:42:23.988Z,16.50
2022-11-24T06:44:51.811Z,15.02
2022-11-24T06:47:19.852Z,10.10
2022-11-24T06:49:47.807Z,17.25
2022-11-24T06:52:16.056Z,14.80
2022-11-24T06:54:44.468Z,18.38
2022-11-24T06:57:12.539Z,17.65
2022-11-24T06:59:40.403Z,15.77
2022-11-24T07:02:10.505Z,20.98
2022-11-24T07:04:38.393Z,15.80
2022-11-24T07:07:06.607Z,13.88
2022-11-24T07:09:34.378Z,15.18
2022-11-24T07:12:02.434Z,17.67
2022-11-24T07:14:31.376Z,15.32
2022-11-24T07:17:00.742Z,14.43
2022-11-24T07:19:29.243Z,15.80
2022-11-24T07:21:59.863Z,20.80
2022-11-24T07:24:27.580Z,13.85
2022-11-24T07:26:56.083Z,14.30
2022-11-24T07:29:25.251Z,17.52
2022-11-24T07:31:56.255Z,15.27
2022-11-24T07:34:26.084Z,16.00
2022-11-24T07:36:54.353Z,18.20
2022-11-24T07:39:22.682Z,17.08
2022-11-24T07:41:50.652Z,13.23
2022-11-24T07:44:18.850Z,14.15
2022-11-24T07:46:46.864Z,13.75
2022-11-24T07:49:15.515Z,17.13
2022-11-24T07:51:44.029Z,15.40
2022-11-24T07:54:12.286Z,21.35
2022-11-24T07:56:40.642Z,14.05
2022-11-24T07:59:08.417Z,21.00
2022-11-24T08:01:37.083Z,13.98
2022-11-24T08:04:07.459Z,13.30
2022-11-24T08:06:40.817Z,15.07
2022-11-24T08:09:11.160Z,14.57
2022-11-24T08:11:39.290Z,17.20
2022-11-24T08:14:09.195Z,24.02
2022-11-24T08:16:37.979Z,13.75
2022-11-24T08:19:06.236Z,14.77
2022-11-24T08:21:35.510Z,17.52
2022-11-24T08:24:03.530Z,15.88
2022-11-24T08:26:32.079Z,21.02
2022-11-24T08:29:05.613Z,14.15
2022-11-24T08:31:37.092Z,17.15
2022-11-24T08:34:07.479Z,17.15
2022-11-24T08:36:36.001Z,11.45
2022-11-24T08:39:04.495Z,22.05
2022-11-24T08:41:33.315Z,11.95
2022-11-24T08:44:01.175Z,14.88
2022-11-24T08:46:29.916Z,13.43
2022-11-24T08:48:57.708Z,18.30
2022-11-24T08:51:27.371Z,14.82
2022-11-24T08:53:56.984Z,21.73
2022-11-24T08:56:30.507Z,15.38
2022-11-24T08:58:58.992Z,18.77
2022-11-24T09:01:28.088Z,17.58
2022-11-24T09:03:57.057Z,21.90
2022-11-24T09:06:30.860Z,22.98
2022-11-24T09:09:00.229Z,26.00
2022-11-24T09:11:30.855Z,22.10
2022-11-24T09:13:58.807Z,23.40
2022-11-24T09:16:29.148Z,15.88
2022-11-24T09:19:06.718Z,19.67
2022-11-24T09:21:37.925Z,27.60
2022-11-24T09:24:07.865Z,19.00
2022-11-24T09:26:38.989Z,19.63
2022-11-24T09:29:09.909Z,24.23
2022-11-24T09:31:39.391Z,17.60
2022-11-24T09:34:11.643Z,20.05
2022-11-24T09:36:40.131Z,15.63
2022-11-24T09:39:07.994Z,24.70
2022-11-24T09:41:54.984Z,23.00
2022-11-24T09:44:38.818Z,18.65
2022-11-24T09:47:33.652Z,20.90
2022-11-24T09:50:14.060Z,24.52
2022-11-24T09:53:01.864Z,19.83
2022-11-24T09:55:51.569Z,22.17
2022-11-24T09:58:51.382Z,14.95
2022-11-24T10:01:24.969Z,21.20
2022-11-24T10:03:54.227Z,21.38
2022-11-24T10:06:40.555Z,26.95
2022-11-24T10:09:33.211Z,24.17
2022-11-24T10:12:20.022Z,28.58
2022-11-24T10:15:14.926Z,21.27
2022-11-24T10:18:30.467Z,22.88
2022-11-24T10:21:04.457Z,17.70
2022-11-24T10:23:47.371Z,20.88
2022-11-24T10:26:23.457Z,27.42
2022-11-24T10:28:56.169Z,23.67
2022-11-24T10:31:33.499Z,22.30
2022-11-24T10:34:09.875Z,35.13
2022-11-24T10:36:48.301Z,28.15
2022-11-24T10:39:20.004Z,28.20
2022-11-24T10:42:07.783Z,24.83
2022-11-24T10:44:36.132Z,31.80
2022-11-24T10:47:04.344Z,23.75
2022-11-24T10:49:33.797Z,25.85
2022-11-24T10:52:06.023Z,30.30
2022-11-24T10:54:36.043Z,26.48
2022-11-24T10:57:04.733Z,29.42
2022-11-24T10:59:38.665Z,26.85
2022-11-24T11:02:29.335Z,39.30
2022-11-24T11:04:57.558Z,21.40
2022-11-24T11:07:30.002Z,27.27
2022-11-24T11:10:21.780Z,22.73
2022-11-24T11:12:50.454Z,24.27
2022-11-24T11:15:28.705Z,20.63
2022-11-24T11:18:01.635Z,31.45
2022-11-24T11:20:32.681Z,22.73
2022-11-24T11:23:16.849Z,27.27
2022-11-24T11:25:44.802Z,21.00
2022-11-24T11:28:30.285Z,22.77
2022-11-24T11:34:06.361Z,19.42
2022-11-24T11:36:41.586Z,24.73
2022-11-24T11:39:21.688Z,28.73
2022-11-24T11:42:00.622Z,25.30
2022-11-24T11:44:39.830Z,19.92
2022-11-24T11:47:30.233Z,26.17
2022-11-24T11:50:01.145Z,24.80
2022-11-24T11:53:06.922Z,23.10
2022-11-24T11:55:50.198Z,18.90
2022-11-24T11:58:44.919Z,22.52
2022-11-24T12:01:29.680Z,18.83
2022-11-24T12:04:22.893Z,15.05
2022-11-24T12:07:09.895Z,20.20
2022-11-24T12:10:03.860Z,19.02
2022-11-24T12:12:41.568Z,12.35
2022-11-24T12:15:18.501Z,15.60
2022-11-24T12:18:33.092Z,20.42
2022-11-24T12:21:26.779Z,19.80
2022-11-24T12:24:22.060Z,17.83
2022-11-24T12:27:03.469Z,21.48
2022-11-24T12:29:45.277Z,12.35
2022-11-24T12:32:35.083Z,16.65
2022-11-24T12:35:31.377Z,19.02
2022-11-24T12:38:18.340Z,20.10
2022-11-24T12:41:40.402Z,16.90
2022-11-24T12:44:23.222Z,18.80
2022-11-24T12:46:59.418Z,21.35
2022-11-24T12:49:57.011Z,24.52
2022-11-24T12:52:34.373Z,22.58
2022-11-24T12:55:03.570Z,19.63
2022-11-24T12:57:42.505Z,21.13
2022-11-24T13:00:23.569Z,14.02
2022-11-24T13:03:01.114Z,12.27
2022-11-24T13:05:58.871Z,17.73
2022-11-24T13:08:31.015Z,18.20
2022-11-24T13:11:36.522Z,23.00
2022-11-24T13:14:15.963Z,21.05
2022-11-24T13:19:46.919Z,18.63
2022-11-24T13:22:25.863Z,20.08
2022-11-24T13:25:17.016Z,20.15
2022-11-24T13:27:53.289Z,17.88
2022-11-24T13:30:34.086Z,17.15
2022-11-24T13:33:16.931Z,16.48
2022-11-24T13:36:04.952Z,18.27
2022-11-24T13:38:45.527Z,21.48
2022-11-24T13:41:32.401Z,20.20
2022-11-24T13:44:16.740Z,19.88
2022-11-24T13:47:25.153Z,22.33
2022-11-24T13:49:52.901Z,15.05
2022-11-24T13:52:41.704Z,22.27
2022-11-24T13:55:12.711Z,18.17
2022-11-24T13:57:44.060Z,21.88
2022-11-24T14:00:35.810Z,21.90
2022-11-24T14:03:20.666Z,24.30
2022-11-24T14:05:53.363Z,24.63
2022-11-24T14:08:29.284Z,20.27
2022-11-24T14:10:58.857Z,19.73
2022-11-24T14:13:29.376Z,16.35
2022-11-24T14:16:19.434Z,17.08
2022-11-24T14:18:49.996Z,20.90
2022-11-24T14:21:20.619Z,19.88
2022-11-24T14:24:01.251Z,15.13
2022-11-24T14:26:28.968Z,20.88
2022-11-24T14:29:07.555Z,10.85
2022-11-24T14:31:35.397Z,21.23
2022-11-24T14:34:12.929Z,16.77
2022-11-24T14:36:42.537Z,13.82
2022-11-24T14:39:16.444Z,19.38
2022-11-24T14:42:16.168Z,16.77
2022-11-24T14:44:49.685Z,22.98
2022-11-24T14:47:28.731Z,22.10
2022-11-24T14:50:08.336Z,17.23
2022-11-24T14:52:36.665Z,20.00
2022-11-24T14:55:21.757Z,22.23
2022-11-24T14:57:52.884Z,17.90
2022-11-24T15:00:33.734Z,21.48
2022-11-24T15:05:13.365Z,22.98
2022-11-24T15:07:46.111Z,16.00
2022-11-24T15:10:34.168Z,23.75
2022-11-24T15:13:05.213Z,22.95
2022-11-24T15:15:36.284Z,22.27
2022-11-24T15:18:06.414Z,19.13
2022-11-24T15:20:37.198Z,12.38
2022-11-24T15:23:24.310Z,17.85
2022-11-24T15:25:55.423Z,19.80
2022-11-24T15:28:26.117Z,17.92
2022-11-24T15:31:11.334Z,15.80
2022-11-24T15:33:40.584Z,20.20
2022-11-24T15:36:08.477Z,18.58
2022-11-24T15:38:36.709Z,21.17
2022-11-24T15:41:25.934Z,20.25
2022-11-24T15:43:59.160Z,23.23
2022-11-24T15:46:37.735Z,17.55
2022-11-24T15:49:07.198Z,16.23
2022-11-24T15:51:36.184Z,11.75
2022-11-24T15:54:04.398Z,19.95
2022-11-24T15:58:14.290Z,13.98
2022-11-24T16:00:43.651Z,17.02
2022-11-24T16:03:44.553Z,11.07
2022-11-24T16:05:59.833Z,16.30
2022-11-24T16:08:27.745Z,15.63
2022-11-24T16:10:56.140Z,10.13
2022-11-24T16:13:24.385Z,11.35
2022-11-24T16:15:54.624Z,15.25
2022-11-24T16:18:22.608Z,15.00
2022-11-24T16:20:53.128Z,13.47
2022-11-24T16:23:21.509Z,10.63
2022-11-24T16:25:49.656Z,9.77
2022-11-24T16:28:20.763Z,12.80
2022-11-24T16:30:50.374Z,10.18
2022-11-24T16:33:18.223Z,8.05
2022-11-24T16:35:48.239Z,4.20
2022-11-24T16:38:19.860Z,4.22
2022-11-24T16:40:52.539Z,3.47
2022-11-24T16:43:20.853Z,6.03
2022-11-24T16:46:22.127Z,9.57
2022-11-24T16:51:19.486Z,6.60
2022-11-24T16:53:48.096Z,8.73
2022-11-24T16:56:17.553Z,4.43
2022-11-24T16:58:45.996Z,4.20
2022-11-24T17:01:14.448Z,8.10
2022-11-24T17:03:43.387Z,4.47
2022-11-24T17:06:12.943Z,3.78
2022-11-24T17:08:41.498Z,3.95
2022-11-24T17:11:20.359Z,4.40
2022-11-24T17:13:51.580Z,3.97
2022-11-24T17:16:22.421Z,7.45
2022-11-24T17:18:53.468Z,6.82
2022-11-24T17:21:24.033Z,6.95
2022-11-24T17:24:05.438Z,6.20
2022-11-24T17:26:33.827Z,6.10
2022-11-24T17:29:02.855Z,9.00
2022-11-24T17:31:32.250Z,6.07
2022-11-24T17:34:01.425Z,7.22
2022-11-24T17:36:31.667Z,5.50
2022-11-24T17:39:01.534Z,7.83
2022-11-24T17:41:30.143Z,10.82
2022-11-24T17:43:58.851Z,8.25
2022-11-24T17:46:28.656Z,11.77
2022-11-24T17:48:57.515Z,11.52
2022-11-24T17:51:26.805Z,12.43
2022-11-24T17:53:57.333Z,11.40
2022-11-24T17:56:27.215Z,13.43
2022-11-24T17:58:58.922Z,11.68
2022-11-24T18:01:30.188Z,12.95
2022-11-24T18:03:59.176Z,12.35
2022-11-24T18:06:28.812Z,12.95
2022-11-24T18:08:58.163Z,10.60
2022-11-24T18:11:32.188Z,13.05
2022-11-24T18:14:03.485Z,15.25
2022-11-24T18:16:34.764Z,15.68
2022-11-24T18:21:40.036Z,14.55
2022-11-24T18:24:12.501Z,15.35
2022-11-24T18:26:41.899Z,19.73
2022-11-24T18:29:11.514Z,15.43
2022-11-24T18:31:39.735Z,20.40
2022-11-24T18:34:08.042Z,20.52
2022-11-24T18:36:36.070Z,24.50
2022-11-24T18:39:06.493Z,14.63
2022-11-24T18:41:35.496Z,15.27
2022-11-24T18:44:07.866Z,23.00
2022-11-24T18:46:38.286Z,17.77
2022-11-24T18:49:07.257Z,15.98
2022-11-24T18:51:36.382Z,19.63
2022-11-24T18:54:05.603Z,15.15
2022-11-24T18:56:34.549Z,18.27
2022-11-24T18:59:02.490Z,20.33
2022-11-24T19:01:31.240Z,18.55
2022-11-24T19:04:01.807Z,18.88
2022-11-24T19:06:35.771Z,20.40
2022-11-24T19:09:16.153Z,15.82
2022-11-24T19:11:46.508Z,17.63
2022-11-24T19:14:17.330Z,17.95
2022-11-24T19:16:48.125Z,21.55
2022-11-24T19:19:17.193Z,18.90
2022-11-24T19:21:45.363Z,16.77
2022-11-24T19:24:13.875Z,18.73
2022-11-24T19:26:42.382Z,21.35
2022-11-24T19:29:10.672Z,22.25
2022-11-24T19:31:40.333Z,20.27
2022-11-24T19:34:08.524Z,15.40
2022-11-24T19:36:37.124Z,15.73
2022-11-24T19:39:05.417Z,17.50
2022-11-24T19:41:34.506Z,19.23
2022-11-24T19:44:02.990Z,20.65
2022-11-24T19:46:32.413Z,23.73
2022-11-24T19:49:02.710Z,24.95
2022-11-24T19:51:33.177Z,19.17
2022-11-24T19:54:02.645Z,18.23
2022-11-24T19:56:35.947Z,18.05
2022-11-24T19:59:06.524Z,23.55
2022-11-24T20:01:37.480Z,21.90
2022-11-24T20:04:11.636Z,30.30
2022-11-24T20:06:42.506Z,22.55
2022-11-24T20:09:20.589Z,30.40
2022-11-24T20:11:49.270Z,28.13
2022-11-24T20:14:19.251Z,20.98
2022-11-24T20:16:47.877Z,27.75
2022-11-24T20:19:18.515Z,28.00
2022-11-24T20:21:47.844Z,22.48
2022-11-24T20:24:19.060Z,38.00
2022-11-24T20:26:51.361Z,23.98
2022-11-24T20:29:20.394Z,20.13
2022-11-24T20:31:54.250Z,23.50
2022-11-24T20:34:23.726Z,20.60
2022-11-24T20:36:53.114Z,17.95
2022-11-24T20:39:25.468Z,22.92
2022-11-24T20:41:55.362Z,17.60
2022-11-24T20:44:25.008Z,20.13
2022-11-24T20:46:56.850Z,17.00
2022-11-24T20:49:26.412Z,18.25
2022-11-24T20:51:55.073Z,21.77
2022-11-24T20:54:23.571Z,17.98
2022-11-24T20:56:54.409Z,21.65
2022-11-24T20:59:24.568Z,19.67
2022-11-24T21:01:55.500Z,21.42
2022-11-24T21:04:26.000Z,18.58
2022-11-24T21:06:55.379Z,22.13
2022-11-24T21:09:28.536Z,16.92
2022-11-24T21:11:56.622Z,25.35
2022-11-24T21:14:25.004Z,18.60
2022-11-24T21:16:53.112Z,22.58
2022-11-24T21:19:21.257Z,19.92
2022-11-24T21:21:49.972Z,18.83
2022-11-24T21:24:21.587Z,21.40
2022-11-24T21:26:52.789Z,15.80
2022-11-24T21:29:23.613Z,23.40
2022-11-24T21:34:20.599Z,22.23
2022-11-24T21:36:48.786Z,16.17
2022-11-24T21:39:19.286Z,21.77
2022-11-24T21:41:47.823Z,22.20
2022-11-24T21:44:16.575Z,24.13
2022-11-24T21:46:51.057Z,24.63
2022-11-24T21:49:20.327Z,17.75
2022-11-24T21:51:55.265Z,22.98
2022-11-24T21:54:23.356Z,19.40
2022-11-24T21:56:54.548Z,19.60
2022-11-24T21:59:22.670Z,16.55
2022-11-24T22:01:50.887Z,17.67
2022-11-24T22:04:18.684Z,16.88
2022-11-24T22:06:49.215Z,20.83
2022-11-24T22:09:18.375Z,22.15
2022-11-24T22:11:49.428Z,17.25
2022-11-24T22:14:17.360Z,20.67
2022-11-24T22:16:46.383Z,24.83
2022-11-24T22:21:24.362Z,16.92
2022-11-24T22:23:53.149Z,18.10
2022-11-24T22:26:22.849Z,16.30
2022-11-24T22:28:51.609Z,19.63
2022-11-24T22:31:24.486Z,14.75
2022-11-24T22:33:53.641Z,21.92
2022-11-24T22:36:23.321Z,20.92
2022-11-24T22:39:03.818Z,16.65
2022-11-24T22:41:35.663Z,16.95
2022-11-24T22:44:04.467Z,17.77
2022-11-24T22:46:32.479Z,17.10
2022-11-24T22:49:01.919Z,15.32
2022-11-24T22:51:32.534Z,15.48
2022-11-24T22:54:03.599Z,20.52
2022-11-24T22:56:32.611Z,13.75
2022-11-24T22:59:03.068Z,20.15
2022-11-24T23:01:32.742Z,12.00
2022-11-24T23:04:02.447Z,14.07
2022-11-24T23:06:32.799Z,15.85
2022-11-24T23:09:02.075Z,18.60
2022-11-24T23:11:40.433Z,11.25
2022-11-24T23:14:14.021Z,14.57
2022-11-24T23:16:42.966Z,19.80
2022-11-24T23:19:11.213Z,15.57
2022-11-24T23:21:41.720Z,29.50
2022-11-24T23:24:11.006Z,47.30
2022-11-24T23:26:40.838Z,42.55
2022-11-24T23:29:11.880Z,23.95
2022-11-24T23:31:40.333Z,18.42
2022-11-24T23:34:11.133Z,13.23
2022-11-24T23:36:41.975Z,15.68
2022-11-24T23:39:13.360Z,17.33
2022-11-24T23:41:41.341Z,17.75
2022-11-24T23:44:09.277Z,14.70
2022-11-24T23:46:37.073Z,18.73
2022-11-24T23:49:05.719Z,16.27
2022-11-24T23:51:34.054Z,17.65
2022-11-24T23:54:02.288Z,13.65
2022-11-24T23:56:32.789Z,18.50
2022-11-24T23:59:02.634Z,14.85
